createdAt,value
2019-06-26T00:02:30.909Z,27.55
2019-06-26T00:05:03.274Z,27.54
2019-06-26T00:07:35.495Z,27.52
2019-06-26T00:10:07.708Z,27.56
2019-06-26T00:12:39.907Z,27.56
2019-06-26T00:15:14.331Z,27.53
2019-06-26T00:17:46.566Z,27.46
2019-06-26T00:20:19.120Z,27.41
2019-06-26T00:22:51.402Z,27.36
2019-06-26T00:25:23.666Z,27.36
2019-06-26T00:27:55.967Z,27.32
2019-06-26T00:30:28.345Z,27.24
2019-06-26T00:33:00.612Z,27.22
2019-06-26T00:35:32.898Z,27.20
2019-06-26T00:38:05.109Z,27.21
2019-06-26T00:40:37.424Z,27.20
2019-06-26T00:43:09.720Z,27.17
2019-06-26T00:45:42.040Z,27.11
2019-06-26T00:48:14.344Z,27.05
2019-06-26T00:50:46.540Z,27.02
2019-06-26T00:53:18.715Z,26.97
2019-06-26T00:55:50.911Z,26.94
2019-06-26T00:58:23.307Z,26.92
2019-06-26T01:00:55.559Z,26.94
2019-06-26T01:03:27.807Z,26.93
2019-06-26T01:06:00.137Z,26.93
2019-06-26T01:08:32.739Z,26.91
2019-06-26T01:11:05.886Z,26.87
2019-06-26T01:13:38.442Z,26.83
2019-06-26T01:16:10.716Z,26.79
2019-06-26T01:18:43.017Z,26.79
2019-06-26T01:21:15.363Z,26.75
2019-06-26T01:23:47.793Z,26.72
2019-06-26T01:26:20.186Z,26.71
2019-06-26T01:28:52.509Z,26.73
2019-06-26T01:31:24.808Z,26.69
2019-06-26T01:33:57.099Z,26.61
2019-06-26T01:36:34.253Z,26.58
2019-06-26T01:39:07.172Z,26.56
2019-06-26T01:41:39.366Z,26.55
2019-06-26T01:44:15.383Z,26.52
2019-06-26T01:46:47.999Z,26.50
2019-06-26T01:49:20.296Z,26.47
2019-06-26T01:51:52.473Z,26.44
2019-06-26T01:54:24.694Z,26.41
2019-06-26T01:56:56.920Z,26.41
2019-06-26T01:59:34.331Z,26.38
2019-06-26T02:02:11.566Z,26.35
2019-06-26T02:04:49.140Z,26.33
2019-06-26T02:07:26.445Z,26.31
2019-06-26T02:10:03.676Z,26.29
2019-06-26T02:12:40.786Z,26.30
2019-06-26T02:15:17.148Z,26.25
2019-06-26T02:17:54.431Z,26.22
2019-06-26T02:20:31.578Z,26.22
2019-06-26T02:23:08.796Z,26.23
2019-06-26T02:25:46.124Z,26.24
2019-06-26T02:28:23.698Z,26.25
2019-06-26T02:31:00.803Z,26.20
2019-06-26T02:33:38.045Z,26.15
2019-06-26T02:36:15.454Z,26.16
2019-06-26T02:38:52.637Z,26.15
2019-06-26T02:41:29.815Z,26.13
2019-06-26T02:44:07.098Z,26.05
2019-06-26T02:46:44.293Z,25.99
2019-06-26T02:49:21.674Z,25.91
2019-06-26T02:51:58.752Z,25.85
2019-06-26T02:54:31.158Z,25.81
2019-06-26T02:57:03.396Z,25.81
2019-06-26T02:59:35.733Z,25.83
2019-06-26T03:02:07.935Z,25.81
2019-06-26T03:04:40.197Z,25.80
2019-06-26T03:07:12.431Z,25.76
2019-06-26T03:09:44.750Z,25.75
2019-06-26T03:12:17.392Z,25.75
2019-06-26T03:14:49.716Z,25.75
2019-06-26T03:17:21.949Z,25.76
2019-06-26T03:19:54.394Z,25.75
2019-06-26T03:22:26.682Z,25.76
2019-06-26T03:24:59.028Z,25.71
2019-06-26T03:27:31.324Z,25.65
2019-06-26T03:30:05.751Z,25.67
2019-06-26T03:32:38.069Z,25.69
2019-06-26T03:35:10.355Z,25.67
2019-06-26T03:37:42.670Z,25.67
2019-06-26T03:40:15.030Z,25.68
2019-06-26T03:42:47.279Z,25.69
2019-06-26T03:45:25.836Z,25.69
2019-06-26T03:47:58.809Z,25.66
2019-06-26T03:50:31.143Z,25.63
2019-06-26T03:53:03.386Z,25.57
2019-06-26T03:55:35.649Z,25.57
2019-06-26T03:58:07.981Z,25.59
2019-06-26T04:00:42.071Z,25.62
2019-06-26T04:03:14.321Z,25.65
2019-06-26T04:05:51.552Z,25.66
2019-06-26T04:08:28.780Z,25.64
2019-06-26T04:11:06.003Z,25.63
2019-06-26T04:13:43.291Z,25.59
2019-06-26T04:16:20.708Z,25.55
2019-06-26T04:18:53.007Z,25.52
2019-06-26T04:21:25.234Z,25.51
2019-06-26T04:23:57.458Z,25.51
2019-06-26T04:26:29.765Z,25.52
2019-06-26T04:29:01.991Z,25.55
2019-06-26T04:31:34.329Z,25.60
2019-06-26T04:34:06.592Z,25.64
2019-06-26T04:36:38.905Z,25.68
2019-06-26T04:39:11.128Z,25.71
2019-06-26T04:41:43.403Z,25.77
2019-06-26T04:44:15.818Z,25.85
2019-06-26T04:46:48.132Z,25.88
2019-06-26T04:49:20.368Z,25.94
2019-06-26T04:51:52.574Z,25.99
2019-06-26T04:54:24.782Z,26.02
2019-06-26T04:57:02.823Z,26.08
2019-06-26T04:59:47.508Z,26.12
2019-06-26T05:02:20.737Z,26.16
2019-06-26T05:04:53.514Z,26.22
2019-06-26T05:07:25.776Z,26.28
2019-06-26T05:09:58.191Z,26.36
2019-06-26T05:12:30.470Z,26.45
2019-06-26T05:15:06.011Z,26.54
2019-06-26T05:17:38.326Z,26.58
2019-06-26T05:20:10.632Z,26.61
2019-06-26T05:22:42.863Z,26.64
2019-06-26T05:25:15.798Z,26.70
2019-06-26T05:27:48.085Z,26.78
2019-06-26T05:30:20.330Z,26.85
2019-06-26T05:32:52.704Z,26.90
2019-06-26T05:35:25.040Z,26.85
2019-06-26T05:37:57.353Z,26.83
2019-06-26T05:40:29.579Z,26.84
2019-06-26T05:43:01.823Z,26.76
2019-06-26T05:45:34.018Z,26.70
2019-06-26T05:48:06.273Z,26.68
2019-06-26T05:50:38.423Z,26.65
2019-06-26T05:53:11.136Z,26.70
2019-06-26T05:55:43.503Z,26.75
2019-06-26T05:58:16.059Z,26.84
2019-06-26T06:00:48.924Z,26.93
2019-06-26T06:03:21.776Z,26.92
2019-06-26T06:05:54.495Z,26.92
2019-06-26T06:08:27.014Z,26.91
2019-06-26T06:10:59.283Z,26.95
2019-06-26T06:13:35.556Z,26.86
2019-06-26T06:16:08.036Z,26.88
2019-06-26T06:18:43.417Z,26.95
2019-06-26T06:21:15.597Z,26.95
2019-06-26T06:23:47.896Z,27.03
2019-06-26T06:26:20.105Z,27.06
2019-06-26T06:28:52.472Z,27.04
2019-06-26T06:31:24.672Z,27.03
2019-06-26T06:34:01.104Z,27.03
2019-06-26T06:36:33.612Z,27.12
2019-06-26T06:39:07.439Z,27.19
2019-06-26T06:41:43.222Z,27.26
2019-06-26T06:44:15.893Z,27.30
2019-06-26T06:47:02.721Z,27.35
2019-06-26T06:49:35.874Z,27.39
2019-06-26T06:52:08.114Z,27.37
2019-06-26T06:54:41.128Z,27.35
2019-06-26T06:57:13.379Z,27.31
2019-06-26T06:59:48.103Z,27.26
2019-06-26T07:02:21.352Z,27.24
2019-06-26T07:04:53.818Z,27.34
2019-06-26T07:07:26.288Z,27.46
2019-06-26T07:09:58.559Z,27.51
2019-06-26T07:12:30.875Z,27.51
2019-06-26T07:15:05.775Z,27.53
2019-06-26T07:17:37.969Z,27.53
2019-06-26T07:20:11.263Z,27.56
2019-06-26T07:22:43.421Z,27.58
2019-06-26T07:25:15.707Z,27.62
2019-06-26T07:27:47.874Z,27.64
2019-06-26T07:30:20.141Z,27.63
2019-06-26T07:32:53.128Z,27.63
2019-06-26T07:35:25.454Z,27.66
2019-06-26T07:38:00.061Z,27.68
2019-06-26T07:40:32.682Z,27.70
2019-06-26T07:43:05.114Z,27.68
2019-06-26T07:45:37.319Z,27.70
2019-06-26T07:48:09.567Z,27.73
2019-06-26T07:50:41.831Z,27.72
2019-06-26T07:53:14.056Z,27.75
2019-06-26T07:55:46.403Z,27.76
2019-06-26T07:58:18.688Z,27.84
2019-06-26T08:00:51.034Z,27.92
2019-06-26T08:03:23.320Z,28.01
2019-06-26T08:05:55.838Z,28.02
2019-06-26T08:08:35.372Z,28.00
2019-06-26T08:11:19.910Z,28.02
2019-06-26T08:13:52.987Z,27.98
2019-06-26T08:16:25.315Z,28.09
2019-06-26T08:18:57.580Z,28.13
2019-06-26T08:21:30.715Z,28.10
2019-06-26T08:24:07.273Z,28.09
2019-06-26T08:26:39.496Z,28.18
2019-06-26T08:29:11.802Z,28.22
2019-06-26T08:31:44.043Z,28.33
2019-06-26T08:34:16.248Z,28.37
2019-06-26T08:36:48.508Z,28.40
2019-06-26T08:39:20.717Z,28.55
2019-06-26T08:41:53.237Z,28.75
2019-06-26T08:44:25.516Z,28.94
2019-06-26T08:46:57.725Z,29.06
2019-06-26T08:49:30.006Z,29.13
2019-06-26T08:52:02.334Z,29.18
2019-06-26T08:54:34.860Z,29.19
2019-06-26T08:57:07.111Z,29.29
2019-06-26T08:59:39.286Z,29.36
2019-06-26T09:02:26.235Z,29.50
2019-06-26T09:05:00.468Z,29.62
2019-06-26T09:07:32.796Z,29.64
2019-06-26T09:10:05.889Z,29.56
2019-06-26T09:12:38.073Z,29.64
2019-06-26T09:15:10.319Z,29.71
2019-06-26T09:17:44.507Z,29.88
2019-06-26T09:20:37.549Z,29.98
2019-06-26T09:23:09.726Z,30.13
2019-06-26T09:25:41.943Z,30.23
2019-06-26T09:28:14.122Z,30.32
2019-06-26T09:30:46.455Z,30.51
2019-06-26T09:33:18.731Z,30.57
2019-06-26T09:35:50.942Z,30.58
2019-06-26T09:38:23.327Z,30.64
2019-06-26T09:40:56.001Z,30.79
2019-06-26T09:43:28.268Z,30.98
2019-06-26T09:46:00.465Z,31.17
2019-06-26T09:48:33.677Z,31.28
2019-06-26T09:51:06.011Z,31.37
2019-06-26T09:53:47.231Z,31.41
2019-06-26T09:56:20.329Z,31.56
2019-06-26T09:58:52.573Z,31.72
2019-06-26T10:01:24.937Z,31.89
2019-06-26T10:03:57.284Z,31.92
2019-06-26T10:06:29.539Z,32.04
2019-06-26T10:09:01.838Z,32.13
2019-06-26T10:11:34.063Z,32.26
2019-06-26T10:14:06.514Z,32.38
2019-06-26T10:16:38.840Z,32.46
2019-06-26T10:19:22.645Z,32.51
2019-06-26T10:21:55.458Z,32.59
2019-06-26T10:24:27.907Z,32.69
2019-06-26T10:27:00.203Z,32.70
2019-06-26T10:29:32.579Z,32.83
2019-06-26T10:32:05.119Z,32.97
2019-06-26T10:34:37.396Z,33.20
2019-06-26T10:37:09.955Z,33.29
2019-06-26T10:39:42.391Z,33.39
2019-06-26T10:42:14.616Z,33.55
2019-06-26T10:44:47.319Z,33.62
2019-06-26T10:47:19.532Z,33.70
2019-06-26T10:49:52.218Z,33.85
2019-06-26T10:52:24.410Z,34.03
2019-06-26T10:54:56.670Z,34.18
2019-06-26T10:57:28.908Z,34.27
2019-06-26T11:00:01.150Z,34.34
2019-06-26T11:02:35.545Z,34.35
2019-06-26T11:05:07.963Z,34.40
2019-06-26T11:07:40.184Z,34.44
2019-06-26T11:10:13.157Z,34.40
2019-06-26T11:12:48.826Z,34.46
2019-06-26T11:15:21.356Z,34.46
2019-06-26T11:17:53.675Z,34.51
2019-06-26T11:20:26.704Z,34.48
2019-06-26T11:22:58.944Z,34.58
2019-06-26T11:25:31.195Z,34.68
2019-06-26T11:28:03.428Z,34.78
2019-06-26T11:30:35.787Z,34.84
2019-06-26T11:33:08.378Z,34.97
2019-06-26T11:35:39.915Z,35.09
2019-06-26T11:38:12.230Z,35.08
2019-06-26T11:40:44.570Z,35.25
2019-06-26T11:43:18.056Z,35.37
2019-06-26T11:45:54.941Z,35.54
2019-06-26T11:48:28.889Z,35.64
2019-06-26T11:51:01.123Z,35.69
2019-06-26T11:53:33.368Z,35.79
2019-06-26T11:56:05.637Z,35.81
2019-06-26T11:58:38.815Z,35.92
2019-06-26T12:01:18.450Z,36.03
2019-06-26T12:04:17.491Z,36.00
2019-06-26T12:06:54.011Z,35.92
2019-06-26T12:09:27.567Z,36.04
2019-06-26T12:11:59.965Z,36.23
2019-06-26T12:14:32.575Z,36.34
2019-06-26T12:17:04.813Z,36.48
2019-06-26T12:19:38.029Z,36.57
2019-06-26T12:22:11.366Z,36.64
2019-06-26T12:24:44.152Z,36.59
2019-06-26T12:27:16.487Z,36.67
2019-06-26T12:29:49.108Z,36.61
2019-06-26T12:32:21.403Z,36.72
2019-06-26T12:34:53.725Z,36.73
2019-06-26T12:37:37.058Z,36.70
2019-06-26T12:40:10.670Z,36.80
2019-06-26T12:42:45.943Z,36.87
2019-06-26T12:45:17.847Z,37.03
2019-06-26T12:47:53.367Z,37.08
2019-06-26T12:50:35.449Z,37.12
2019-06-26T12:53:08.495Z,37.16
2019-06-26T12:55:40.723Z,37.18
2019-06-26T12:58:16.282Z,37.22
2019-06-26T13:00:52.404Z,37.15
2019-06-26T13:03:24.663Z,36.95
2019-06-26T13:05:57.374Z,37.08
2019-06-26T13:08:29.890Z,37.08
2019-06-26T13:11:02.172Z,37.13
2019-06-26T13:13:34.914Z,37.19
2019-06-26T13:16:07.577Z,37.32
2019-06-26T13:18:40.336Z,37.48
2019-06-26T13:21:18.725Z,37.63
2019-06-26T13:23:51.062Z,37.75
2019-06-26T13:26:24.295Z,37.78
2019-06-26T13:28:59.034Z,37.88
2019-06-26T13:31:31.765Z,37.89
2019-06-26T13:34:04.935Z,37.92
2019-06-26T13:36:37.245Z,37.86
2019-06-26T13:39:09.579Z,37.85
2019-06-26T13:41:50.674Z,37.99
2019-06-26T13:44:23.786Z,37.91
2019-06-26T13:46:56.017Z,37.83
2019-06-26T13:49:28.289Z,37.74
2019-06-26T13:52:00.548Z,37.66
2019-06-26T13:54:32.768Z,37.66
2019-06-26T13:57:05.750Z,37.62
2019-06-26T13:59:38.102Z,37.61
2019-06-26T14:02:10.409Z,37.61
2019-06-26T14:04:42.739Z,37.53
2019-06-26T14:07:15.035Z,37.45
2019-06-26T14:09:47.446Z,37.39
2019-06-26T14:12:20.149Z,37.26
2019-06-26T14:14:57.674Z,37.15
2019-06-26T14:17:30.516Z,37.12
2019-06-26T14:20:02.836Z,37.18
2019-06-26T14:22:35.132Z,37.19
2019-06-26T14:25:07.745Z,37.12
2019-06-26T14:27:40.204Z,37.24
2019-06-26T14:30:14.660Z,37.31
2019-06-26T14:32:47.147Z,37.26
2019-06-26T14:35:19.404Z,37.27
2019-06-26T14:37:52.998Z,37.09
2019-06-26T14:40:25.272Z,36.95
2019-06-26T14:42:57.514Z,36.89
2019-06-26T14:45:29.855Z,36.84
2019-06-26T14:48:03.396Z,36.84
2019-06-26T14:50:35.835Z,36.94
2019-06-26T14:53:08.314Z,36.99
2019-06-26T14:55:42.430Z,37.06
2019-06-26T14:58:16.168Z,37.13
2019-06-26T15:00:48.450Z,37.28
2019-06-26T15:03:21.747Z,37.45
2019-06-26T15:05:54.148Z,37.53
2019-06-26T15:08:27.079Z,37.53
2019-06-26T15:11:00.541Z,37.63
2019-06-26T15:13:34.936Z,37.63
2019-06-26T15:16:07.948Z,37.46
2019-06-26T15:18:40.220Z,37.26
2019-06-26T15:21:12.556Z,37.18
2019-06-26T15:23:46.992Z,37.08
2019-06-26T15:26:19.264Z,37.08
2019-06-26T15:28:51.638Z,37.09
2019-06-26T15:31:26.467Z,37.13
2019-06-26T15:33:59.343Z,37.14
2019-06-26T15:36:34.381Z,37.09
2019-06-26T15:39:09.451Z,37.22
2019-06-26T15:41:41.878Z,37.19
2019-06-26T15:44:14.310Z,37.12
2019-06-26T15:46:46.608Z,37.10
2019-06-26T15:49:18.876Z,37.10
2019-06-26T15:51:52.396Z,36.96
2019-06-26T15:54:24.823Z,36.70
2019-06-26T15:56:57.245Z,36.52
2019-06-26T15:59:31.140Z,36.48
2019-06-26T16:02:03.688Z,36.47
2019-06-26T16:04:36.009Z,36.54
2019-06-26T16:07:08.267Z,36.49
2019-06-26T16:09:40.560Z,36.31
2019-06-26T16:12:12.872Z,36.29
2019-06-26T16:14:45.491Z,36.33
2019-06-26T16:17:30.548Z,36.24
2019-06-26T16:20:02.852Z,36.15
2019-06-26T16:22:35.142Z,36.16
2019-06-26T16:25:07.814Z,36.15
2019-06-26T16:27:40.132Z,36.09
2019-06-26T16:30:16.223Z,35.88
2019-06-26T16:32:48.491Z,35.68
2019-06-26T16:35:21.307Z,35.60
2019-06-26T16:37:53.805Z,35.52
2019-06-26T16:40:26.752Z,35.40
2019-06-26T16:42:59.018Z,35.19
2019-06-26T16:45:32.128Z,35.17
2019-06-26T16:48:04.500Z,35.11
2019-06-26T16:50:38.427Z,35.00
2019-06-26T16:53:12.732Z,34.91
2019-06-26T16:55:46.268Z,34.80
2019-06-26T16:58:19.522Z,34.59
2019-06-26T17:00:53.133Z,34.44
2019-06-26T17:03:25.363Z,34.31
2019-06-26T17:05:57.643Z,34.16
2019-06-26T17:08:30.642Z,34.08
2019-06-26T17:11:07.114Z,34.02
2019-06-26T17:13:42.003Z,34.07
2019-06-26T17:16:14.251Z,33.99
2019-06-26T17:18:46.551Z,33.89
2019-06-26T17:21:18.795Z,33.80
2019-06-26T17:23:52.137Z,33.82
2019-06-26T17:26:24.545Z,33.78
2019-06-26T17:28:56.943Z,33.67
2019-06-26T17:31:29.570Z,33.59
2019-06-26T17:34:01.838Z,33.49
2019-06-26T17:36:34.116Z,33.36
2019-06-26T17:39:07.392Z,33.28
2019-06-26T17:41:39.770Z,33.16
2019-06-26T17:44:12.054Z,33.02
2019-06-26T17:46:44.325Z,32.95
2019-06-26T17:49:16.686Z,32.92
2019-06-26T17:51:49.052Z,32.76
2019-06-26T17:54:21.433Z,32.57
2019-06-26T17:56:54.478Z,32.42
2019-06-26T17:59:26.728Z,32.31
2019-06-26T18:02:00.505Z,32.20
2019-06-26T18:04:40.453Z,32.19
2019-06-26T18:07:12.720Z,32.05
2019-06-26T18:09:45.010Z,31.85
2019-06-26T18:12:17.232Z,31.65
2019-06-26T18:14:49.872Z,31.50
2019-06-26T18:17:22.794Z,31.37
2019-06-26T18:19:56.352Z,31.32
2019-06-26T18:22:28.673Z,31.23
2019-06-26T18:25:01.030Z,31.16
2019-06-26T18:27:33.409Z,31.05
2019-06-26T18:30:10.297Z,30.92
2019-06-26T18:32:44.243Z,30.80
2019-06-26T18:35:16.649Z,30.70
2019-06-26T18:37:49.067Z,30.61
2019-06-26T18:40:22.320Z,30.46
2019-06-26T18:42:54.741Z,30.32
2019-06-26T18:45:27.058Z,30.15
2019-06-26T18:47:59.471Z,29.99
2019-06-26T18:50:31.791Z,29.83
2019-06-26T18:53:04.150Z,29.68
2019-06-26T18:55:36.486Z,29.54
2019-06-26T18:58:08.878Z,29.44
2019-06-26T19:00:41.481Z,29.36
2019-06-26T19:03:13.769Z,29.26
2019-06-26T19:05:46.088Z,29.29
2019-06-26T19:08:18.514Z,29.32
2019-06-26T19:10:51.447Z,29.32
2019-06-26T19:13:24.686Z,29.31
2019-06-26T19:15:57.219Z,29.28
2019-06-26T19:18:29.612Z,29.24
2019-06-26T19:21:01.953Z,29.14
2019-06-26T19:23:34.291Z,29.01
2019-06-26T19:26:07.351Z,28.89
2019-06-26T19:28:40.240Z,28.79
2019-06-26T19:31:12.612Z,28.70
2019-06-26T19:33:45.741Z,28.61
2019-06-26T19:36:18.245Z,28.50
2019-06-26T19:38:50.614Z,28.42
2019-06-26T19:41:23.091Z,28.33
2019-06-26T19:43:55.482Z,28.25
2019-06-26T19:46:27.932Z,28.16
2019-06-26T19:49:00.303Z,28.12
2019-06-26T19:51:32.691Z,28.08
2019-06-26T19:54:04.987Z,28.06
2019-06-26T19:56:37.403Z,28.00
2019-06-26T19:59:10.279Z,27.93
2019-06-26T20:01:43.901Z,27.87
2019-06-26T20:04:16.174Z,27.83
2019-06-26T20:06:48.601Z,27.74
2019-06-26T20:09:21.079Z,27.66
2019-06-26T20:11:53.600Z,27.55
2019-06-26T20:14:25.999Z,27.46
2019-06-26T20:16:58.613Z,27.40
2019-06-26T20:19:32.188Z,27.36
2019-06-26T20:22:04.688Z,27.33
2019-06-26T20:24:44.141Z,27.28
2019-06-26T20:27:17.272Z,27.22
2019-06-26T20:29:49.602Z,27.16
2019-06-26T20:32:21.928Z,27.10
2019-06-26T20:34:54.507Z,27.07
2019-06-26T20:37:26.886Z,27.04
2019-06-26T20:39:59.232Z,27.03
2019-06-26T20:42:31.597Z,27.05
2019-06-26T20:45:05.628Z,27.04
2019-06-26T20:47:38.113Z,27.02
2019-06-26T20:50:10.541Z,27.06
2019-06-26T20:52:42.936Z,27.06
2019-06-26T20:55:15.266Z,27.01
2019-06-26T20:57:47.557Z,27.05
2019-06-26T21:00:22.445Z,27.05
2019-06-26T21:02:55.380Z,27.03
2019-06-26T21:05:29.072Z,26.97
2019-06-26T21:08:01.562Z,26.96
2019-06-26T21:10:38.095Z,26.90
2019-06-26T21:13:12.040Z,26.82
2019-06-26T21:15:44.489Z,26.73
2019-06-26T21:18:16.859Z,26.65
2019-06-26T21:20:49.264Z,26.60
2019-06-26T21:23:23.519Z,26.56
2019-06-26T21:25:56.139Z,26.52
2019-06-26T21:28:29.987Z,26.46
2019-06-26T21:31:02.244Z,26.40
2019-06-26T21:33:34.588Z,26.32
2019-06-26T21:36:06.872Z,26.25
2019-06-26T21:38:39.094Z,26.21
2019-06-26T21:41:11.362Z,26.20
2019-06-26T21:43:43.589Z,26.19
2019-06-26T21:46:15.934Z,26.16
2019-06-26T21:48:48.203Z,26.09
2019-06-26T21:51:21.245Z,26.10
2019-06-26T21:53:53.577Z,26.07
2019-06-26T21:56:25.830Z,25.99
2019-06-26T21:58:58.076Z,25.91
2019-06-26T22:01:30.527Z,25.83
2019-06-26T22:04:03.645Z,25.73
2019-06-26T22:06:36.022Z,25.65
2019-06-26T22:09:08.602Z,25.60
2019-06-26T22:11:40.924Z,25.56
2019-06-26T22:14:13.273Z,25.49
2019-06-26T22:16:45.532Z,25.44
2019-06-26T22:19:17.779Z,25.38
2019-06-26T22:21:50.004Z,25.31
2019-06-26T22:24:22.415Z,25.24
2019-06-26T22:26:54.695Z,25.20
2019-06-26T22:29:27.950Z,25.16
2019-06-26T22:32:00.309Z,25.12
2019-06-26T22:34:32.533Z,25.09
2019-06-26T22:37:04.851Z,25.07
2019-06-26T22:39:37.114Z,25.08
2019-06-26T22:42:09.412Z,25.06
2019-06-26T22:44:41.719Z,25.03
2019-06-26T22:47:13.953Z,25.03
2019-06-26T22:49:46.168Z,25.04
2019-06-26T22:52:18.736Z,25.03
2019-06-26T22:54:51.027Z,24.97
2019-06-26T22:57:23.508Z,24.97
2019-06-26T22:59:55.805Z,25.03
2019-06-26T23:02:28.236Z,25.05
2019-06-26T23:05:00.792Z,24.99
2019-06-26T23:07:33.244Z,24.94
2019-06-26T23:10:06.551Z,24.91
2019-06-26T23:12:38.804Z,24.87
2019-06-26T23:15:13.349Z,24.80
2019-06-26T23:17:45.600Z,24.74
2019-06-26T23:20:18.127Z,24.71
2019-06-26T23:22:50.483Z,24.67
2019-06-26T23:25:22.917Z,24.64
2019-06-26T23:27:55.208Z,24.59
2019-06-26T23:30:29.444Z,24.53
2019-06-26T23:33:01.726Z,24.47
2019-06-26T23:35:33.983Z,24.41
2019-06-26T23:38:06.253Z,24.39
2019-06-26T23:40:38.418Z,24.34
2019-06-26T23:43:10.740Z,24.27
2019-06-26T23:45:43.660Z,24.20
2019-06-26T23:48:15.875Z,24.15
2019-06-26T23:50:48.247Z,24.10
2019-06-26T23:53:20.599Z,24.10
2019-06-26T23:55:56.222Z,24.05
2019-06-26T23:58:28.562Z,24.00
